createdAt,value
2022-08-05T00:00:16.770Z,15.55
2022-08-05T00:02:51.439Z,14.95
2022-08-05T00:06:03.119Z,15.85
2022-08-05T00:08:32.934Z,15.57
2022-08-05T00:11:01.461Z,15.20
2022-08-05T00:13:39.125Z,16.38
2022-08-05T00:16:12.613Z,15.40
2022-08-05T00:21:14.424Z,15.48
2022-08-05T00:23:53.700Z,16.45
2022-08-05T00:26:31.736Z,16.35
2022-08-05T00:28:59.012Z,16.58
2022-08-05T00:31:54.309Z,15.77
2022-08-05T00:34:53.478Z,15.05
2022-08-05T00:37:10.347Z,16.67
2022-08-05T00:39:41.575Z,16.50
2022-08-05T00:42:37.009Z,16.98
2022-08-05T00:45:08.805Z,17.70
2022-08-05T00:47:56.870Z,17.20
2022-08-05T00:50:26.595Z,16.67
2022-08-05T00:52:55.131Z,16.30
2022-08-05T00:55:42.303Z,16.00
2022-08-05T00:58:19.127Z,18.30
2022-08-05T01:00:47.793Z,17.20
2022-08-05T01:03:22.222Z,16.90
2022-08-05T01:05:54.423Z,31.00
2022-08-05T01:08:41.246Z,18.92
2022-08-05T01:11:22.718Z,16.70
2022-08-05T01:14:11.973Z,17.23
2022-08-05T01:17:14.651Z,18.38
2022-08-05T01:20:01.366Z,23.85
2022-08-05T01:23:14.365Z,17.05
2022-08-05T01:26:07.573Z,16.23
2022-08-05T01:28:42.811Z,16.90
2022-08-05T01:31:15.661Z,16.92
2022-08-05T01:33:53.647Z,16.90
2022-08-05T01:36:28.124Z,16.77
2022-08-05T01:39:01.177Z,17.20
2022-08-05T01:41:34.782Z,17.15
2022-08-05T01:44:04.389Z,18.15
2022-08-05T01:46:42.559Z,17.90
2022-08-05T01:49:23.709Z,18.83
2022-08-05T01:51:59.634Z,19.02
2022-08-05T01:54:52.697Z,19.27
2022-08-05T01:58:10.294Z,20.00
2022-08-05T02:00:19.001Z,18.15
2022-08-05T02:03:24.086Z,18.55
2022-08-05T02:05:57.911Z,18.77
2022-08-05T02:08:31.147Z,18.58
2022-08-05T02:11:14.214Z,19.08
2022-08-05T02:14:21.198Z,18.88
2022-08-05T02:16:53.536Z,19.08
2022-08-05T02:19:25.709Z,18.73
2022-08-05T02:22:01.812Z,19.00
2022-08-05T02:24:37.644Z,20.08
2022-08-05T02:27:10.407Z,18.67
2022-08-05T02:29:59.751Z,20.17
2022-08-05T02:32:29.414Z,19.23
2022-08-05T02:35:13.826Z,18.73
2022-08-05T02:37:46.526Z,18.73
2022-08-05T02:40:17.281Z,18.33
2022-08-05T02:42:52.666Z,18.83
2022-08-05T02:45:25.253Z,19.98
2022-08-05T02:48:06.356Z,20.17
2022-08-05T02:50:38.512Z,20.88
2022-08-05T02:53:16.064Z,19.83
2022-08-05T02:55:54.207Z,21.73
2022-08-05T02:58:27.525Z,20.58
2022-08-05T03:01:01.981Z,20.88
2022-08-05T03:03:34.030Z,20.45
2022-08-05T03:06:53.703Z,20.83
2022-08-05T03:08:52.315Z,18.55
2022-08-05T03:11:54.794Z,18.73
2022-08-05T03:14:13.588Z,18.33
2022-08-05T03:16:41.031Z,18.63
2022-08-05T03:19:12.776Z,17.98
2022-08-05T03:21:49.336Z,17.40
2022-08-05T03:24:26.881Z,17.15
2022-08-05T03:26:59.261Z,17.38
2022-08-05T03:29:45.166Z,16.95
2022-08-05T03:32:16.846Z,16.85
2022-08-05T03:34:50.509Z,17.55
2022-08-05T03:37:20.654Z,17.20
2022-08-05T03:40:00.999Z,16.70
2022-08-05T03:42:32.411Z,15.98
2022-08-05T03:45:21.574Z,16.55
2022-08-05T03:47:51.608Z,17.30
2022-08-05T03:50:19.024Z,17.08
2022-08-05T03:55:49.760Z,17.10
2022-08-05T03:56:44.628Z,16.10
2022-08-05T03:59:47.093Z,17.67
2022-08-05T04:02:17.481Z,16.05
2022-08-05T04:05:05.950Z,16.52
2022-08-05T04:07:57.797Z,15.38
2022-08-05T04:10:33.373Z,15.43
2022-08-05T04:13:05.614Z,15.95
2022-08-05T04:15:36.107Z,16.02
2022-08-05T04:18:09.475Z,14.88
2022-08-05T04:20:38.477Z,15.48
2022-08-05T04:23:12.501Z,16.35
2022-08-05T04:25:57.085Z,15.55
2022-08-05T04:28:28.519Z,16.02
2022-08-05T04:31:00.826Z,16.15
2022-08-05T04:34:19.158Z,16.17
2022-08-05T04:36:45.871Z,15.52
2022-08-05T04:39:03.561Z,15.55
2022-08-05T04:41:37.617Z,15.32
2022-08-05T04:44:09.022Z,15.82
2022-08-05T04:46:38.503Z,16.95
2022-08-05T04:49:12.226Z,15.57
2022-08-05T04:51:44.412Z,15.88
2022-08-05T04:54:12.104Z,14.88
2022-08-05T04:56:39.712Z,15.48
2022-08-05T04:59:22.042Z,15.18
2022-08-05T05:02:35.282Z,14.15
2022-08-05T05:04:44.063Z,13.55
2022-08-05T05:07:17.159Z,13.75
2022-08-05T05:09:46.035Z,13.48
2022-08-05T05:12:13.364Z,14.45
2022-08-05T05:14:49.410Z,13.10
2022-08-05T05:17:23.392Z,13.43
2022-08-05T05:19:55.220Z,13.50
2022-08-05T05:22:26.114Z,13.30
2022-08-05T05:25:00.355Z,13.82
2022-08-05T05:27:44.866Z,13.07
2022-08-05T05:30:29.263Z,11.45
2022-08-05T05:33:00.815Z,12.82
2022-08-05T05:38:09.254Z,11.52
2022-08-05T05:40:49.543Z,10.63
2022-08-05T05:43:21.841Z,10.85
2022-08-05T05:45:55.458Z,10.13
2022-08-05T05:48:27.526Z,9.05
2022-08-05T05:50:55.178Z,9.38
2022-08-05T05:53:22.958Z,9.18
2022-08-05T05:56:03.239Z,8.73
2022-08-05T05:58:32.241Z,9.57
2022-08-05T06:01:12.648Z,9.90
2022-08-05T06:04:00.755Z,9.65
2022-08-05T06:06:33.229Z,16.95
2022-08-05T06:09:04.244Z,21.02
2022-08-05T06:11:34.887Z,11.52
2022-08-05T06:14:06.583Z,9.32
2022-08-05T06:16:37.365Z,10.63
2022-08-05T06:19:07.303Z,9.50
2022-08-05T06:21:38.695Z,9.25
2022-08-05T06:24:11.593Z,8.27
2022-08-05T06:26:51.747Z,10.48
2022-08-05T06:29:46.609Z,12.00
2022-08-05T06:32:21.031Z,12.13
2022-08-05T06:37:56.997Z,12.82
2022-08-05T06:40:18.377Z,10.63
2022-08-05T06:42:52.076Z,11.23
2022-08-05T06:45:45.108Z,9.70
2022-08-05T06:48:44.334Z,9.30
2022-08-05T06:50:56.360Z,8.35
2022-08-05T06:53:27.977Z,9.38
2022-08-05T06:55:58.628Z,8.80
2022-08-05T06:58:35.004Z,8.98
2022-08-05T07:01:06.684Z,8.15
2022-08-05T07:03:35.150Z,7.90
2022-08-05T07:06:05.748Z,6.63
2022-08-05T07:08:47.648Z,6.57
2022-08-05T07:11:22.138Z,6.22
2022-08-05T07:14:20.631Z,6.82
2022-08-05T07:17:56.217Z,5.47
2022-08-05T07:22:36.132Z,5.72
2022-08-05T07:25:23.831Z,5.68
2022-08-05T07:28:00.132Z,5.40
2022-08-05T07:30:38.573Z,5.45
2022-08-05T07:33:10.417Z,5.25
2022-08-05T07:36:04.064Z,5.68
2022-08-05T07:38:34.170Z,5.05
2022-08-05T07:41:35.168Z,5.30
2022-08-05T07:43:57.774Z,5.00
2022-08-05T07:46:26.921Z,4.65
2022-08-05T07:49:02.172Z,4.88
2022-08-05T07:51:40.874Z,4.78
2022-08-05T07:54:26.209Z,4.82
2022-08-05T07:57:01.827Z,5.03
2022-08-05T07:59:41.228Z,4.40
2022-08-05T08:02:16.499Z,5.55
2022-08-05T08:04:48.609Z,4.85
2022-08-05T08:07:18.419Z,4.97
2022-08-05T08:09:52.035Z,5.45
2022-08-05T08:12:36.848Z,5.18
2022-08-05T08:15:14.292Z,4.82
2022-08-05T08:17:52.370Z,4.53
2022-08-05T08:20:44.198Z,5.20
2022-08-05T08:23:11.550Z,4.90
2022-08-05T08:26:00.457Z,4.95
2022-08-05T08:28:36.275Z,4.70
2022-08-05T08:31:06.770Z,4.25
2022-08-05T08:33:37.548Z,4.57
2022-08-05T08:38:56.849Z,4.80
2022-08-05T08:41:51.119Z,4.82
2022-08-05T08:45:19.670Z,4.55
2022-08-05T08:47:47.437Z,4.47
2022-08-05T08:50:14.197Z,4.72
2022-08-05T08:52:51.349Z,4.50
2022-08-05T08:55:19.771Z,4.75
2022-08-05T08:58:07.446Z,4.70
2022-08-05T09:00:35.903Z,5.03
2022-08-05T09:03:06.883Z,5.45
2022-08-05T09:05:38.447Z,5.45
2022-08-05T09:08:27.382Z,5.00
2022-08-05T09:10:55.037Z,5.25
2022-08-05T09:13:23.583Z,5.93
2022-08-05T09:15:51.568Z,6.10
2022-08-05T09:18:18.817Z,4.68
2022-08-05T09:20:47.272Z,4.68
2022-08-05T09:23:21.781Z,4.80
2022-08-05T09:26:02.468Z,5.10
2022-08-05T09:28:34.335Z,5.57
2022-08-05T09:31:23.394Z,5.75
2022-08-05T09:34:06.551Z,5.32
2022-08-05T09:39:39.518Z,5.75
2022-08-05T09:42:17.625Z,5.45
2022-08-05T09:45:17.292Z,5.05
2022-08-05T09:47:55.576Z,5.18
2022-08-05T09:50:38.890Z,6.05
2022-08-05T09:53:17.085Z,5.10
2022-08-05T09:56:11.399Z,5.33
2022-08-05T09:58:41.653Z,5.80
2022-08-05T10:01:22.369Z,5.82
2022-08-05T10:04:19.569Z,6.35
2022-08-05T10:06:59.462Z,5.50
2022-08-05T10:09:29.222Z,5.65
2022-08-05T10:12:30.320Z,5.75
2022-08-05T10:15:34.140Z,5.80
2022-08-05T10:18:20.303Z,6.18
2022-08-05T10:20:58.026Z,5.90
2022-08-05T10:23:55.865Z,5.88
2022-08-05T10:26:32.292Z,6.13
2022-08-05T10:29:00.389Z,6.10
2022-08-05T10:32:54.068Z,5.53
2022-08-05T10:34:14.807Z,6.50
2022-08-05T10:36:44.534Z,5.80
2022-08-05T10:40:03.375Z,5.60
2022-08-05T10:42:32.315Z,5.88
2022-08-05T10:45:21.611Z,5.63
2022-08-05T10:48:29.694Z,6.60
2022-08-05T10:51:03.427Z,7.30
2022-08-05T10:53:52.858Z,8.07
2022-08-05T10:56:27.407Z,10.73
2022-08-05T10:58:54.687Z,6.50
2022-08-05T11:01:55.438Z,6.90
2022-08-05T11:04:28.287Z,12.75
2022-08-05T11:06:58.431Z,8.18
2022-08-05T11:09:39.529Z,6.63
2022-08-05T11:12:42.342Z,5.97
2022-08-05T11:15:21.741Z,5.25
2022-08-05T11:18:03.820Z,6.18
2022-08-05T11:20:41.790Z,7.22
2022-08-05T11:23:49.915Z,7.25
2022-08-05T11:26:28.189Z,5.80
2022-08-05T11:28:57.104Z,7.43
2022-08-05T11:31:51.880Z,5.20
2022-08-05T11:34:37.924Z,5.25
2022-08-05T11:38:26.015Z,5.65
2022-08-05T11:39:55.408Z,5.32
2022-08-05T11:42:28.768Z,5.43
2022-08-05T11:45:14.590Z,5.18
2022-08-05T11:47:54.601Z,5.40
2022-08-05T11:50:22.951Z,5.60
2022-08-05T11:52:57.659Z,5.38
2022-08-05T11:55:31.931Z,5.15
2022-08-05T11:58:10.254Z,5.80
2022-08-05T12:00:41.377Z,5.72
2022-08-05T12:03:24.097Z,5.45
2022-08-05T12:06:05.873Z,6.07
2022-08-05T12:08:33.963Z,5.47
2022-08-05T12:11:09.545Z,5.78
2022-08-05T12:13:59.509Z,5.00
2022-08-05T12:16:41.086Z,5.53
2022-08-05T12:20:26.353Z,5.13
2022-08-05T12:22:01.390Z,5.55
2022-08-05T12:24:28.713Z,5.50
2022-08-05T12:26:57.359Z,5.30
2022-08-05T12:29:27.387Z,5.55
2022-08-05T12:32:01.838Z,4.97
2022-08-05T12:34:32.090Z,5.32
2022-08-05T12:37:03.417Z,4.97
2022-08-05T12:39:34.461Z,5.90
2022-08-05T12:42:19.259Z,5.13
2022-08-05T12:44:47.650Z,5.15
2022-08-05T12:47:28.835Z,5.45
2022-08-05T12:52:39.180Z,5.47
2022-08-05T12:55:25.426Z,4.75
2022-08-05T12:58:50.692Z,5.65
2022-08-05T13:02:03.768Z,5.28
2022-08-05T13:03:42.104Z,5.22
2022-08-05T13:06:17.870Z,5.00
2022-08-05T13:08:52.049Z,5.13
2022-08-05T13:12:02.099Z,5.60
2022-08-05T13:14:19.341Z,5.10
2022-08-05T13:16:56.666Z,5.72
2022-08-05T13:19:52.211Z,5.07
2022-08-05T13:22:29.528Z,5.60
2022-08-05T13:25:00.721Z,5.47
2022-08-05T13:27:44.277Z,4.97
2022-08-05T13:30:33.803Z,5.50
2022-08-05T13:33:02.863Z,5.10
2022-08-05T13:35:42.820Z,5.60
2022-08-05T13:38:28.388Z,5.30
2022-08-05T13:41:00.084Z,5.20
2022-08-05T13:43:44.957Z,5.63
2022-08-05T13:46:16.351Z,4.93
2022-08-05T13:49:00.708Z,4.93
2022-08-05T13:51:36.634Z,4.95
2022-08-05T13:54:12.077Z,4.43
2022-08-05T13:56:45.144Z,4.43
2022-08-05T13:59:25.025Z,5.05
2022-08-05T14:02:00.305Z,4.35
2022-08-05T14:04:51.844Z,4.80
2022-08-05T14:07:25.361Z,4.67
2022-08-05T14:10:28.134Z,4.40
2022-08-05T14:12:57.132Z,4.82
2022-08-05T14:16:09.046Z,5.03
2022-08-05T14:18:18.273Z,4.60
2022-08-05T14:20:48.333Z,5.20
2022-08-05T14:23:23.946Z,4.45
2022-08-05T14:25:58.500Z,4.28
2022-08-05T14:28:30.154Z,4.97
2022-08-05T14:30:59.289Z,4.35
2022-08-05T14:33:32.624Z,5.32
2022-08-05T14:36:15.535Z,4.13
2022-08-05T14:38:48.178Z,4.40
2022-08-05T14:41:18.530Z,4.40
2022-08-05T14:44:02.393Z,4.85
2022-08-05T14:46:35.354Z,5.85
2022-08-05T14:49:07.647Z,4.82
2022-08-05T14:51:42.841Z,4.60
2022-08-05T14:54:28.440Z,5.55
2022-08-05T14:59:44.256Z,5.30
2022-08-05T15:02:25.123Z,5.32
2022-08-05T15:04:53.682Z,4.95
2022-08-05T15:08:13.166Z,5.40
2022-08-05T15:10:28.813Z,5.30
2022-08-05T15:13:01.474Z,5.45
2022-08-05T15:15:55.899Z,4.95
2022-08-05T15:18:26.810Z,4.53
2022-08-05T15:20:54.182Z,5.13
2022-08-05T15:23:21.656Z,4.95
2022-08-05T15:25:52.136Z,4.40
2022-08-05T15:28:27.321Z,5.15
2022-08-05T15:30:56.450Z,5.13
2022-08-05T15:34:05.540Z,4.95
2022-08-05T15:36:17.720Z,5.55
2022-08-05T15:40:41.753Z,5.13
2022-08-05T15:41:58.325Z,5.15
2022-08-05T15:44:28.093Z,4.95
2022-08-05T15:46:58.063Z,4.90
2022-08-05T15:49:42.223Z,5.53
2022-08-05T15:52:16.611Z,4.85
2022-08-05T15:54:57.179Z,5.30
2022-08-05T15:57:24.715Z,4.88
2022-08-05T15:59:57.604Z,5.57
2022-08-05T16:02:25.770Z,5.63
2022-08-05T16:04:55.418Z,6.63
2022-08-05T16:07:23.039Z,5.03
2022-08-05T16:09:50.935Z,5.05
2022-08-05T16:12:21.464Z,5.28
2022-08-05T16:14:48.621Z,5.47
2022-08-05T16:17:16.106Z,4.95
2022-08-05T16:20:04.959Z,6.55
2022-08-05T16:22:34.722Z,5.47
2022-08-05T16:25:09.350Z,5.72
2022-08-05T16:28:00.237Z,5.18
2022-08-05T16:30:29.071Z,4.95
2022-08-05T16:32:58.033Z,4.90
2022-08-05T16:35:28.457Z,5.22
2022-08-05T16:38:15.524Z,5.75
2022-08-05T16:40:48.093Z,5.60
2022-08-05T16:43:25.600Z,6.05
2022-08-05T16:46:03.614Z,5.65
2022-08-05T16:48:36.261Z,6.03
2022-08-05T16:51:10.061Z,5.25
2022-08-05T16:54:05.302Z,5.60
2022-08-05T16:56:29.721Z,6.20
2022-08-05T16:58:57.974Z,5.72
2022-08-05T17:01:25.798Z,6.28
2022-08-05T17:03:53.392Z,6.82
2022-08-05T17:06:24.649Z,6.45
2022-08-05T17:08:54.426Z,6.78
2022-08-05T17:11:25.443Z,6.35
2022-08-05T17:14:00.244Z,7.03
2022-08-05T17:16:36.352Z,6.85
2022-08-05T17:19:07.391Z,7.07
2022-08-05T17:21:37.707Z,7.13
2022-08-05T17:24:20.466Z,6.90
2022-08-05T17:26:57.916Z,6.88
2022-08-05T17:29:33.915Z,7.10
2022-08-05T17:32:11.330Z,6.88
2022-08-05T17:34:44.529Z,7.95
2022-08-05T17:37:40.545Z,8.10
2022-08-05T17:40:01.340Z,7.45
2022-08-05T17:42:31.929Z,7.40
2022-08-05T17:45:18.160Z,7.18
2022-08-05T17:47:54.057Z,7.38
2022-08-05T17:50:28.406Z,8.02
2022-08-05T17:53:05.137Z,7.68
2022-08-05T17:55:38.491Z,7.70
2022-08-05T17:58:13.318Z,7.47
2022-08-05T18:00:45.228Z,7.82
2022-08-05T18:03:39.310Z,7.68
2022-08-05T18:06:11.110Z,8.02
2022-08-05T18:08:44.226Z,8.45
2022-08-05T18:11:23.771Z,8.57
2022-08-05T18:13:52.588Z,7.57
2022-08-05T18:16:20.362Z,9.02
2022-08-05T18:18:49.966Z,9.20
2022-08-05T18:21:19.842Z,9.48
2022-08-05T18:23:53.665Z,9.13
2022-08-05T18:26:29.113Z,8.65
2022-08-05T18:28:57.345Z,9.70
2022-08-05T18:31:24.835Z,9.20
2022-08-05T18:33:52.864Z,9.68
2022-08-05T18:36:28.013Z,9.07
2022-08-05T18:38:56.095Z,9.77
2022-08-05T18:41:56.635Z,9.50
2022-08-05T18:44:12.770Z,9.68
2022-08-05T18:46:41.246Z,9.38
2022-08-05T18:49:30.720Z,8.80
2022-08-05T18:52:33.209Z,9.38
2022-08-05T18:55:02.631Z,9.30
2022-08-05T18:57:43.157Z,8.88
2022-08-05T19:00:20.447Z,8.48
2022-08-05T19:02:48.791Z,9.02
2022-08-05T19:06:06.988Z,8.63
2022-08-05T19:08:12.188Z,8.77
2022-08-05T19:10:41.521Z,8.48
2022-08-05T19:13:12.432Z,8.93
2022-08-05T19:15:59.926Z,9.30
2022-08-05T19:18:30.627Z,9.23
2022-08-05T19:20:59.782Z,9.27
2022-08-05T19:24:06.561Z,8.60
2022-08-05T19:26:16.717Z,9.38
2022-08-05T19:28:44.155Z,10.15
2022-08-05T19:31:17.972Z,9.73
2022-08-05T19:33:48.176Z,9.80
2022-08-05T19:36:26.862Z,9.43
2022-08-05T19:39:01.086Z,9.75
2022-08-05T19:42:06.553Z,10.50
2022-08-05T19:44:29.084Z,8.95
2022-08-05T19:46:57.096Z,9.48
2022-08-05T19:49:25.092Z,9.68
2022-08-05T19:52:09.143Z,9.43
2022-08-05T19:54:40.752Z,9.48
2022-08-05T19:57:10.120Z,9.80
2022-08-05T20:00:00.436Z,9.80
2022-08-05T20:02:31.339Z,9.93
2022-08-05T20:04:59.806Z,9.43
2022-08-05T20:07:47.503Z,10.27
2022-08-05T20:10:17.338Z,10.05
2022-08-05T20:12:49.062Z,9.93
2022-08-05T20:15:22.928Z,10.45
2022-08-05T20:18:10.602Z,9.60
2022-08-05T20:20:55.316Z,9.27
2022-08-05T20:23:40.006Z,9.60
2022-08-05T20:26:16.236Z,11.65
2022-08-05T20:28:51.455Z,10.95
2022-08-05T20:31:28.395Z,11.15
2022-08-05T20:34:04.937Z,11.40
2022-08-05T20:36:32.149Z,10.85
2022-08-05T20:39:00.078Z,10.65
2022-08-05T20:41:43.919Z,10.57
2022-08-05T20:44:19.274Z,10.55
2022-08-05T20:47:03.622Z,10.50
2022-08-05T20:49:37.982Z,11.07
2022-08-05T20:52:07.803Z,10.15
2022-08-05T20:54:43.573Z,10.60
2022-08-05T20:57:43.618Z,10.40
2022-08-05T21:00:40.058Z,11.38
2022-08-05T21:03:06.831Z,11.80
2022-08-05T21:05:47.526Z,11.50
2022-08-05T21:08:20.630Z,11.77
2022-08-05T21:10:53.635Z,12.45
2022-08-05T21:13:46.933Z,10.88
2022-08-05T21:16:08.314Z,11.15
2022-08-05T21:18:35.799Z,11.18
2022-08-05T21:21:03.271Z,11.07
2022-08-05T21:23:37.264Z,11.90
2022-08-05T21:26:12.410Z,11.38
2022-08-05T21:28:47.851Z,11.50
2022-08-05T21:31:18.589Z,11.38
2022-08-05T21:33:47.878Z,12.35
2022-08-05T21:36:29.871Z,14.70
2022-08-05T21:38:58.514Z,12.98
2022-08-05T21:41:33.719Z,12.07
2022-08-05T21:44:04.488Z,11.60
2022-08-05T21:46:35.348Z,12.68
2022-08-05T21:49:07.237Z,12.15
2022-08-05T21:52:21.573Z,11.95
2022-08-05T21:54:27.891Z,11.68
2022-08-05T21:57:28.428Z,11.75
2022-08-05T22:00:03.389Z,11.27
2022-08-05T22:02:32.913Z,11.95
2022-08-05T22:05:00.932Z,12.50
2022-08-05T22:07:40.436Z,12.43
2022-08-05T22:10:17.312Z,12.32
2022-08-05T22:12:54.520Z,11.68
2022-08-05T22:16:00.595Z,11.70
2022-08-05T22:18:12.968Z,12.57
2022-08-05T22:20:42.877Z,11.95
2022-08-05T22:24:00.935Z,12.07
2022-08-05T22:26:35.537Z,12.13
2022-08-05T22:29:03.342Z,11.40
2022-08-05T22:31:31.727Z,12.35
2022-08-05T22:34:12.924Z,12.98
2022-08-05T22:36:52.923Z,12.88
2022-08-05T22:39:21.472Z,13.45
2022-08-05T22:42:10.827Z,11.80
2022-08-05T22:44:36.029Z,12.30
2022-08-05T22:47:06.035Z,12.35
2022-08-05T22:50:20.401Z,13.10
2022-08-05T22:52:30.223Z,12.43
2022-08-05T22:55:02.041Z,12.27
2022-08-05T22:57:36.578Z,12.95
2022-08-05T23:00:07.883Z,12.60
2022-08-05T23:02:40.102Z,12.90
2022-08-05T23:05:15.175Z,12.75
2022-08-05T23:07:44.742Z,12.32
2022-08-05T23:10:13.512Z,13.23
2022-08-05T23:12:41.099Z,12.90
2022-08-05T23:15:11.875Z,12.80
2022-08-05T23:18:01.756Z,13.25
2022-08-05T23:20:26.428Z,12.55
2022-08-05T23:22:56.339Z,11.82
2022-08-05T23:25:53.629Z,12.32
2022-08-05T23:28:12.547Z,11.48
2022-08-05T23:30:43.863Z,12.13
2022-08-05T23:33:25.598Z,12.15
2022-08-05T23:36:09.902Z,11.85
2022-08-05T23:38:38.171Z,12.07
2022-08-05T23:41:05.763Z,11.77
2022-08-05T23:44:04.403Z,12.30
2022-08-05T23:46:22.076Z,12.10
2022-08-05T23:48:59.627Z,12.15
2022-08-05T23:51:55.038Z,11.40
2022-08-05T23:54:30.322Z,12.05
2022-08-05T23:57:04.005Z,12.63
